sensor_id;sensor_type;location;lat;lon;timestamp;P1;durP1;ratioP1;P2;durP2;ratioP2
10845;SDS011;5476;51.540;7.186;2023-04-24T00:01:55;0.70;;;0.70;;
10845;SDS011;5476;51.540;7.186;2023-04-24T00:07:45;0.70;;;0.70;;
10845;SDS011;5476;51.540;7.186;2023-04-24T00:12:44;1.40;;;0.77;;
10845;SDS011;5476;51.540;7.186;2023-04-24T00:13:37;1.10;;;0.60;;
10845;SDS011;5476;51.540;7.186;2023-04-24T00:16:07;1.43;;;0.90;;
10845;SDS011;5476;51.540;7.186;2023-04-24T00:18:36;0.70;;;0.70;;
10845;SDS011;5476;51.540;7.186;2023-04-24T00:21:06;0.80;;;0.80;;
10845;SDS011;5476;51.540;7.186;2023-04-24T00:23:33;2.30;;;0.90;;
10845;SDS011;5476;51.540;7.186;2023-04-24T00:26:00;0.90;;;0.90;;
10845;SDS011;5476;51.540;7.186;2023-04-24T00:28:28;0.80;;;0.80;;
10845;SDS011;5476;51.540;7.186;2023-04-24T00:30:55;1.27;;;0.90;;
10845;SDS011;5476;51.540;7.186;2023-04-24T00:33:22;1.20;;;1.10;;
10845;SDS011;5476;51.540;7.186;2023-04-24T00:35:51;0.90;;;0.90;;
10845;SDS011;5476;51.540;7.186;2023-04-24T00:38:18;1.33;;;0.93;;
10845;SDS011;5476;51.540;7.186;2023-04-24T00:40:45;2.30;;;1.20;;
10845;SDS011;5476;51.540;7.186;2023-04-24T00:43:14;1.00;;;0.90;;
10845;SDS011;5476;51.540;7.186;2023-04-24T00:45:42;0.90;;;0.90;;
10845;SDS011;5476;51.540;7.186;2023-04-24T00:48:09;1.33;;;1.00;;
10845;SDS011;5476;51.540;7.186;2023-04-24T00:50:38;0.80;;;0.80;;
10845;SDS011;5476;51.540;7.186;2023-04-24T00:53:06;1.43;;;1.00;;
10845;SDS011;5476;51.540;7.186;2023-04-24T00:55:34;1.57;;;1.10;;
10845;SDS011;5476;51.540;7.186;2023-04-24T00:58:02;1.33;;;1.23;;
10845;SDS011;5476;51.540;7.186;2023-04-24T01:00:30;1.10;;;1.00;;
10845;SDS011;5476;51.540;7.186;2023-04-24T01:02:57;2.73;;;1.63;;
10845;SDS011;5476;51.540;7.186;2023-04-24T01:05:24;1.20;;;1.10;;
10845;SDS011;5476;51.540;7.186;2023-04-24T01:07:52;1.27;;;1.17;;
10845;SDS011;5476;51.540;7.186;2023-04-24T01:10:21;1.33;;;1.23;;
10845;SDS011;5476;51.540;7.186;2023-04-24T01:12:49;1.20;;;1.10;;
10845;SDS011;5476;51.540;7.186;2023-04-24T01:15:17;1.83;;;1.33;;
10845;SDS011;5476;51.540;7.186;2023-04-24T01:17:44;1.70;;;1.40;;
10845;SDS011;5476;51.540;7.186;2023-04-24T01:20:11;2.03;;;1.00;;
10845;SDS011;5476;51.540;7.186;2023-04-24T01:22:40;1.80;;;1.30;;
10845;SDS011;5476;51.540;7.186;2023-04-24T01:25:08;1.93;;;1.60;;
10845;SDS011;5476;51.540;7.186;2023-04-24T01:27:35;1.70;;;1.60;;
10845;SDS011;5476;51.540;7.186;2023-04-24T01:30:03;2.37;;;1.70;;
10845;SDS011;5476;51.540;7.186;2023-04-24T01:32:31;2.10;;;1.60;;
10845;SDS011;5476;51.540;7.186;2023-04-24T01:34:59;1.33;;;1.23;;
10845;SDS011;5476;51.540;7.186;2023-04-24T01:37:26;1.80;;;1.60;;
10845;SDS011;5476;51.540;7.186;2023-04-24T01:39:55;2.73;;;1.90;;
10845;SDS011;5476;51.540;7.186;2023-04-24T01:42:23;2.03;;;1.70;;
10845;SDS011;5476;51.540;7.186;2023-04-24T01:44:51;2.33;;;2.07;;
10845;SDS011;5476;51.540;7.186;2023-04-24T01:47:18;3.43;;;2.03;;
10845;SDS011;5476;51.540;7.186;2023-04-24T01:49:45;2.70;;;2.00;;
10845;SDS011;5476;51.540;7.186;2023-04-24T01:52:12;2.90;;;2.20;;
10845;SDS011;5476;51.540;7.186;2023-04-24T01:54:40;1.83;;;1.73;;
10845;SDS011;5476;51.540;7.186;2023-04-24T01:57:08;2.50;;;2.30;;
10845;SDS011;5476;51.540;7.186;2023-04-24T01:59:35;3.50;;;2.77;;
10845;SDS011;5476;51.540;7.186;2023-04-24T02:02:03;3.77;;;2.70;;
10845;SDS011;5476;51.540;7.186;2023-04-24T02:04:30;4.10;;;3.00;;
10845;SDS011;5476;51.540;7.186;2023-04-24T02:06:57;4.47;;;3.10;;
10845;SDS011;5476;51.540;7.186;2023-04-24T02:09:24;3.20;;;2.90;;
10845;SDS011;5476;51.540;7.186;2023-04-24T02:11:52;3.60;;;3.13;;
10845;SDS011;5476;51.540;7.186;2023-04-24T02:14:20;3.43;;;3.10;;
10845;SDS011;5476;51.540;7.186;2023-04-24T02:16:48;4.57;;;2.97;;
10845;SDS011;5476;51.540;7.186;2023-04-24T02:19:15;3.57;;;3.00;;
10845;SDS011;5476;51.540;7.186;2023-04-24T02:21:42;3.23;;;2.60;;
10845;SDS011;5476;51.540;7.186;2023-04-24T02:24:10;3.77;;;2.80;;
10845;SDS011;5476;51.540;7.186;2023-04-24T02:26:37;4.80;;;3.27;;
10845;SDS011;5476;51.540;7.186;2023-04-24T02:29:04;4.77;;;3.33;;
10845;SDS011;5476;51.540;7.186;2023-04-24T02:31:33;4.70;;;3.40;;
10845;SDS011;5476;51.540;7.186;2023-04-24T02:34:00;5.00;;;4.17;;
10845;SDS011;5476;51.540;7.186;2023-04-24T02:36:27;7.47;;;4.60;;
10845;SDS011;5476;51.540;7.186;2023-04-24T02:38:56;6.57;;;4.60;;
10845;SDS011;5476;51.540;7.186;2023-04-24T02:41:23;6.23;;;4.70;;
10845;SDS011;5476;51.540;7.186;2023-04-24T02:43:56;7.20;;;5.40;;
10845;SDS011;5476;51.540;7.186;2023-04-24T02:46:23;6.23;;;5.07;;
10845;SDS011;5476;51.540;7.186;2023-04-24T02:48:51;7.60;;;5.47;;
10845;SDS011;5476;51.540;7.186;2023-04-24T02:51:19;7.63;;;5.90;;
10845;SDS011;5476;51.540;7.186;2023-04-24T02:53:46;8.93;;;6.53;;
10845;SDS011;5476;51.540;7.186;2023-04-24T02:56:13;8.07;;;6.30;;
10845;SDS011;5476;51.540;7.186;2023-04-24T02:58:41;9.17;;;6.53;;
10845;SDS011;5476;51.540;7.186;2023-04-24T03:01:08;8.60;;;6.00;;
10845;SDS011;5476;51.540;7.186;2023-04-24T03:03:36;11.13;;;7.10;;
10845;SDS011;5476;51.540;7.186;2023-04-24T03:06:05;10.30;;;7.07;;
10845;SDS011;5476;51.540;7.186;2023-04-24T03:08:33;11.27;;;6.97;;
10845;SDS011;5476;51.540;7.186;2023-04-24T03:11:00;12.77;;;7.30;;
10845;SDS011;5476;51.540;7.186;2023-04-24T03:13:28;11.97;;;7.30;;
10845;SDS011;5476;51.540;7.186;2023-04-24T03:15:55;10.03;;;7.30;;
10845;SDS011;5476;51.540;7.186;2023-04-24T03:18:22;12.53;;;7.67;;
10845;SDS011;5476;51.540;7.186;2023-04-24T03:20:51;10.70;;;7.83;;
10845;SDS011;5476;51.540;7.186;2023-04-24T03:23:20;11.97;;;7.83;;
10845;SDS011;5476;51.540;7.186;2023-04-24T03:25:47;11.33;;;7.60;;
10845;SDS011;5476;51.540;7.186;2023-04-24T03:28:15;11.93;;;8.10;;
10845;SDS011;5476;51.540;7.186;2023-04-24T03:30:42;11.07;;;7.80;;
10845;SDS011;5476;51.540;7.186;2023-04-24T03:33:09;11.93;;;8.57;;
10845;SDS011;5476;51.540;7.186;2023-04-24T03:35:37;12.43;;;8.47;;
10845;SDS011;5476;51.540;7.186;2023-04-24T03:38:04;11.10;;;7.73;;
10845;SDS011;5476;51.540;7.186;2023-04-24T03:40:32;11.40;;;8.23;;
10845;SDS011;5476;51.540;7.186;2023-04-24T03:43:00;12.03;;;8.20;;
10845;SDS011;5476;51.540;7.186;2023-04-24T03:45:28;16.00;;;8.43;;
10845;SDS011;5476;51.540;7.186;2023-04-24T03:47:55;15.20;;;8.77;;
10845;SDS011;5476;51.540;7.186;2023-04-24T03:50:22;13.43;;;8.70;;
10845;SDS011;5476;51.540;7.186;2023-04-24T03:52:51;14.43;;;8.47;;
10845;SDS011;5476;51.540;7.186;2023-04-24T03:55:19;16.43;;;9.33;;
10845;SDS011;5476;51.540;7.186;2023-04-24T03:57:48;14.30;;;8.70;;
10845;SDS011;5476;51.540;7.186;2023-04-24T04:00:15;15.47;;;8.80;;
10845;SDS011;5476;51.540;7.186;2023-04-24T04:02:45;13.77;;;8.50;;
10845;SDS011;5476;51.540;7.186;2023-04-24T04:05:15;12.87;;;8.70;;
10845;SDS011;5476;51.540;7.186;2023-04-24T04:07:42;13.40;;;8.93;;
10845;SDS011;5476;51.540;7.186;2023-04-24T04:10:10;13.00;;;9.20;;
10845;SDS011;5476;51.540;7.186;2023-04-24T04:12:37;11.00;;;8.30;;
10845;SDS011;5476;51.540;7.186;2023-04-24T04:15:06;13.80;;;8.80;;
10845;SDS011;5476;51.540;7.186;2023-04-24T04:17:34;12.30;;;8.30;;
10845;SDS011;5476;51.540;7.186;2023-04-24T04:20:03;15.20;;;8.77;;
10845;SDS011;5476;51.540;7.186;2023-04-24T04:22:34;14.70;;;9.10;;
10845;SDS011;5476;51.540;7.186;2023-04-24T04:25:02;11.57;;;8.60;;
10845;SDS011;5476;51.540;7.186;2023-04-24T04:27:29;14.13;;;8.73;;
10845;SDS011;5476;51.540;7.186;2023-04-24T04:29:57;13.57;;;7.97;;
10845;SDS011;5476;51.540;7.186;2023-04-24T04:32:27;12.40;;;8.53;;
10845;SDS011;5476;51.540;7.186;2023-04-24T04:34:55;12.30;;;7.87;;
10845;SDS011;5476;51.540;7.186;2023-04-24T04:37:22;11.87;;;7.90;;
10845;SDS011;5476;51.540;7.186;2023-04-24T04:39:50;13.07;;;8.50;;
10845;SDS011;5476;51.540;7.186;2023-04-24T04:42:18;12.00;;;8.70;;
10845;SDS011;5476;51.540;7.186;2023-04-24T04:44:46;11.07;;;8.17;;
10845;SDS011;5476;51.540;7.186;2023-04-24T04:47:13;12.50;;;7.87;;
10845;SDS011;5476;51.540;7.186;2023-04-24T04:49:42;12.90;;;8.17;;
10845;SDS011;5476;51.540;7.186;2023-04-24T04:52:09;12.43;;;8.27;;
10845;SDS011;5476;51.540;7.186;2023-04-24T04:54:37;12.70;;;8.07;;
10845;SDS011;5476;51.540;7.186;2023-04-24T04:57:04;14.10;;;8.37;;
10845;SDS011;5476;51.540;7.186;2023-04-24T04:59:32;14.03;;;8.40;;
10845;SDS011;5476;51.540;7.186;2023-04-24T05:02:00;12.47;;;8.10;;
10845;SDS011;5476;51.540;7.186;2023-04-24T05:04:27;12.00;;;7.93;;
10845;SDS011;5476;51.540;7.186;2023-04-24T05:06:56;13.50;;;7.83;;
10845;SDS011;5476;51.540;7.186;2023-04-24T05:09:24;13.40;;;8.43;;
10845;SDS011;5476;51.540;7.186;2023-04-24T05:11:52;9.67;;;7.53;;
10845;SDS011;5476;51.540;7.186;2023-04-24T05:14:20;13.07;;;7.70;;
10845;SDS011;5476;51.540;7.186;2023-04-24T05:16:48;12.97;;;8.43;;
10845;SDS011;5476;51.540;7.186;2023-04-24T05:19:16;10.97;;;7.73;;
10845;SDS011;5476;51.540;7.186;2023-04-24T05:21:43;13.27;;;7.73;;
10845;SDS011;5476;51.540;7.186;2023-04-24T05:24:13;11.77;;;7.53;;
10845;SDS011;5476;51.540;7.186;2023-04-24T05:26:41;9.50;;;7.27;;
10845;SDS011;5476;51.540;7.186;2023-04-24T05:29:09;9.37;;;7.03;;
10845;SDS011;5476;51.540;7.186;2023-04-24T05:31:37;8.70;;;7.17;;
10845;SDS011;5476;51.540;7.186;2023-04-24T05:34:04;10.10;;;7.17;;
10845;SDS011;5476;51.540;7.186;2023-04-24T05:36:32;10.90;;;7.13;;
10845;SDS011;5476;51.540;7.186;2023-04-24T05:38:59;9.53;;;7.20;;
10845;SDS011;5476;51.540;7.186;2023-04-24T05:41:31;7.87;;;6.80;;
10845;SDS011;5476;51.540;7.186;2023-04-24T05:43:59;9.17;;;6.27;;
10845;SDS011;5476;51.540;7.186;2023-04-24T05:46:27;8.83;;;6.40;;
10845;SDS011;5476;51.540;7.186;2023-04-24T05:48:55;7.50;;;6.43;;
10845;SDS011;5476;51.540;7.186;2023-04-24T05:51:22;11.30;;;7.80;;
10845;SDS011;5476;51.540;7.186;2023-04-24T05:53:50;10.30;;;7.33;;
10845;SDS011;5476;51.540;7.186;2023-04-24T05:56:18;9.67;;;7.83;;
10845;SDS011;5476;51.540;7.186;2023-04-24T05:58:48;11.37;;;7.87;;
10845;SDS011;5476;51.540;7.186;2023-04-24T06:01:15;11.37;;;7.80;;
10845;SDS011;5476;51.540;7.186;2023-04-24T06:03:43;12.87;;;8.33;;
10845;SDS011;5476;51.540;7.186;2023-04-24T06:06:10;10.23;;;8.43;;
10845;SDS011;5476;51.540;7.186;2023-04-24T06:08:38;10.43;;;7.83;;
10845;SDS011;5476;51.540;7.186;2023-04-24T06:11:10;10.53;;;8.20;;
10845;SDS011;5476;51.540;7.186;2023-04-24T06:13:43;12.03;;;8.07;;
10845;SDS011;5476;51.540;7.186;2023-04-24T06:26:56;9.47;;;7.50;;
10845;SDS011;5476;51.540;7.186;2023-04-24T06:29:35;11.07;;;8.70;;
10845;SDS011;5476;51.540;7.186;2023-04-24T06:38:29;10.97;;;6.47;;
10845;SDS011;5476;51.540;7.186;2023-04-24T06:41:22;9.40;;;6.47;;
10845;SDS011;5476;51.540;7.186;2023-04-24T06:44:31;6.90;;;5.93;;
10845;SDS011;5476;51.540;7.186;2023-04-24T06:47:25;10.40;;;6.70;;
10845;SDS011;5476;51.540;7.186;2023-04-24T06:54:14;8.07;;;6.07;;
10845;SDS011;5476;51.540;7.186;2023-04-24T07:00:33;7.83;;;5.73;;
10845;SDS011;5476;51.540;7.186;2023-04-24T07:03:28;8.67;;;6.03;;
10845;SDS011;5476;51.540;7.186;2023-04-24T07:12:16;6.90;;;5.60;;
10845;SDS011;5476;51.540;7.186;2023-04-24T07:14:45;7.73;;;5.47;;
10845;SDS011;5476;51.540;7.186;2023-04-24T07:17:29;6.77;;;5.50;;
10845;SDS011;5476;51.540;7.186;2023-04-24T07:20:42;6.90;;;5.83;;
10845;SDS011;5476;51.540;7.186;2023-04-24T07:23:23;5.93;;;4.80;;
10845;SDS011;5476;51.540;7.186;2023-04-24T07:25:56;6.87;;;4.77;;
10845;SDS011;5476;51.540;7.186;2023-04-24T07:28:23;5.83;;;4.67;;
10845;SDS011;5476;51.540;7.186;2023-04-24T07:31:03;4.33;;;3.63;;
10845;SDS011;5476;51.540;7.186;2023-04-24T07:33:50;4.10;;;3.53;;
10845;SDS011;5476;51.540;7.186;2023-04-24T07:36:18;6.07;;;3.63;;
10845;SDS011;5476;51.540;7.186;2023-04-24T07:38:58;5.67;;;3.60;;
10845;SDS011;5476;51.540;7.186;2023-04-24T07:45:27;4.70;;;3.10;;
10845;SDS011;5476;51.540;7.186;2023-04-24T07:50:53;3.37;;;2.87;;
10845;SDS011;5476;51.540;7.186;2023-04-24T07:53:29;3.70;;;2.77;;
10845;SDS011;5476;51.540;7.186;2023-04-24T07:56:10;3.03;;;2.50;;
10845;SDS011;5476;51.540;7.186;2023-04-24T07:58:56;3.90;;;2.60;;
10845;SDS011;5476;51.540;7.186;2023-04-24T08:01:29;3.10;;;2.53;;
10845;SDS011;5476;51.540;7.186;2023-04-24T08:04:02;2.57;;;2.37;;
10845;SDS011;5476;51.540;7.186;2023-04-24T08:06:29;2.40;;;2.20;;
10845;SDS011;5476;51.540;7.186;2023-04-24T08:08:58;1.90;;;1.80;;
10845;SDS011;5476;51.540;7.186;2023-04-24T08:11:25;3.53;;;2.10;;
10845;SDS011;5476;51.540;7.186;2023-04-24T08:13:53;2.27;;;1.47;;
10845;SDS011;5476;51.540;7.186;2023-04-24T08:16:20;1.30;;;1.20;;
10845;SDS011;5476;51.540;7.186;2023-04-24T08:18:54;1.97;;;1.40;;
10845;SDS011;5476;51.540;7.186;2023-04-24T08:21:21;1.73;;;1.00;;
10845;SDS011;5476;51.540;7.186;2023-04-24T08:23:51;1.10;;;0.80;;
10845;SDS011;5476;51.540;7.186;2023-04-24T08:26:35;1.33;;;1.10;;
10845;SDS011;5476;51.540;7.186;2023-04-24T08:29:02;0.73;;;0.73;;
10845;SDS011;5476;51.540;7.186;2023-04-24T08:31:32;1.10;;;1.00;;
10845;SDS011;5476;51.540;7.186;2023-04-24T08:34:07;1.07;;;0.97;;
10845;SDS011;5476;51.540;7.186;2023-04-24T08:36:35;1.83;;;0.90;;
10845;SDS011;5476;51.540;7.186;2023-04-24T08:39:06;2.43;;;1.17;;
10845;SDS011;5476;51.540;7.186;2023-04-24T08:41:35;1.30;;;1.20;;
10845;SDS011;5476;51.540;7.186;2023-04-24T08:44:04;1.00;;;1.00;;
10845;SDS011;5476;51.540;7.186;2023-04-24T08:46:33;1.50;;;1.10;;
10845;SDS011;5476;51.540;7.186;2023-04-24T08:49:02;1.23;;;1.13;;
10845;SDS011;5476;51.540;7.186;2023-04-24T08:51:40;2.50;;;1.30;;
10845;SDS011;5476;51.540;7.186;2023-04-24T08:55:17;1.30;;;1.20;;
10845;SDS011;5476;51.540;7.186;2023-04-24T08:58:21;1.33;;;1.23;;
10845;SDS011;5476;51.540;7.186;2023-04-24T09:00:56;2.67;;;1.60;;
10845;SDS011;5476;51.540;7.186;2023-04-24T09:03:26;1.93;;;1.70;;
10845;SDS011;5476;51.540;7.186;2023-04-24T09:05:56;2.00;;;1.80;;
10845;SDS011;5476;51.540;7.186;2023-04-24T09:08:33;2.33;;;2.13;;
10845;SDS011;5476;51.540;7.186;2023-04-24T09:11:04;2.63;;;2.43;;
10845;SDS011;5476;51.540;7.186;2023-04-24T09:16:30;4.93;;;2.40;;
10845;SDS011;5476;51.540;7.186;2023-04-24T09:19:12;3.03;;;2.77;;
10845;SDS011;5476;51.540;7.186;2023-04-24T09:21:54;3.83;;;3.00;;
10845;SDS011;5476;51.540;7.186;2023-04-24T09:24:45;3.17;;;2.87;;
10845;SDS011;5476;51.540;7.186;2023-04-24T09:27:18;3.83;;;3.43;;
10845;SDS011;5476;51.540;7.186;2023-04-24T09:29:54;3.50;;;3.13;;
10845;SDS011;5476;51.540;7.186;2023-04-24T09:32:48;5.10;;;3.03;;
10845;SDS011;5476;51.540;7.186;2023-04-24T09:35:21;4.40;;;2.73;;
10845;SDS011;5476;51.540;7.186;2023-04-24T09:37:59;3.87;;;2.83;;
10845;SDS011;5476;51.540;7.186;2023-04-24T09:40:50;3.00;;;2.23;;
10845;SDS011;5476;51.540;7.186;2023-04-24T09:43:18;2.97;;;2.60;;
10845;SDS011;5476;51.540;7.186;2023-04-24T09:45:46;3.37;;;3.07;;
10845;SDS011;5476;51.540;7.186;2023-04-24T09:48:14;2.97;;;2.57;;
10845;SDS011;5476;51.540;7.186;2023-04-24T09:50:45;2.90;;;1.93;;
10845;SDS011;5476;51.540;7.186;2023-04-24T09:53:23;4.10;;;2.13;;
10845;SDS011;5476;51.540;7.186;2023-04-24T09:55:54;4.23;;;2.33;;
10845;SDS011;5476;51.540;7.186;2023-04-24T09:58:25;3.00;;;2.60;;
10845;SDS011;5476;51.540;7.186;2023-04-24T10:00:57;3.77;;;2.93;;
10845;SDS011;5476;51.540;7.186;2023-04-24T10:03:32;4.83;;;3.60;;
10845;SDS011;5476;51.540;7.186;2023-04-24T10:06:00;5.13;;;3.37;;
10845;SDS011;5476;51.540;7.186;2023-04-24T10:08:33;7.07;;;4.43;;
10845;SDS011;5476;51.540;7.186;2023-04-24T10:11:03;6.03;;;4.20;;
10845;SDS011;5476;51.540;7.186;2023-04-24T10:13:31;6.10;;;4.13;;
10845;SDS011;5476;51.540;7.186;2023-04-24T10:16:03;5.30;;;3.90;;
10845;SDS011;5476;51.540;7.186;2023-04-24T10:18:31;5.57;;;3.60;;
10845;SDS011;5476;51.540;7.186;2023-04-24T10:21:00;7.97;;;4.30;;
10845;SDS011;5476;51.540;7.186;2023-04-24T10:23:28;6.40;;;3.87;;
10845;SDS011;5476;51.540;7.186;2023-04-24T10:25:57;6.47;;;3.40;;
10845;SDS011;5476;51.540;7.186;2023-04-24T10:28:28;6.27;;;3.20;;
10845;SDS011;5476;51.540;7.186;2023-04-24T10:30:58;5.40;;;4.20;;
10845;SDS011;5476;51.540;7.186;2023-04-24T10:33:26;5.03;;;4.30;;
10845;SDS011;5476;51.540;7.186;2023-04-24T10:35:53;6.77;;;4.80;;
10845;SDS011;5476;51.540;7.186;2023-04-24T10:38:24;6.47;;;4.63;;
10845;SDS011;5476;51.540;7.186;2023-04-24T10:40:57;4.70;;;4.07;;
10845;SDS011;5476;51.540;7.186;2023-04-24T10:43:35;6.63;;;4.63;;
10845;SDS011;5476;51.540;7.186;2023-04-24T10:46:05;6.57;;;4.30;;
10845;SDS011;5476;51.540;7.186;2023-04-24T10:48:33;8.60;;;5.20;;
10845;SDS011;5476;51.540;7.186;2023-04-24T10:51:01;7.40;;;4.80;;
10845;SDS011;5476;51.540;7.186;2023-04-24T10:53:29;9.83;;;4.50;;
10845;SDS011;5476;51.540;7.186;2023-04-24T10:55:57;5.57;;;4.50;;
10845;SDS011;5476;51.540;7.186;2023-04-24T10:58:36;7.73;;;5.00;;
10845;SDS011;5476;51.540;7.186;2023-04-24T11:01:05;8.53;;;6.13;;
10845;SDS011;5476;51.540;7.186;2023-04-24T11:03:33;11.40;;;5.83;;
10845;SDS011;5476;51.540;7.186;2023-04-24T11:06:02;10.83;;;6.10;;
10845;SDS011;5476;51.540;7.186;2023-04-24T11:08:32;10.83;;;5.97;;
10845;SDS011;5476;51.540;7.186;2023-04-24T11:11:08;12.17;;;6.03;;
10845;SDS011;5476;51.540;7.186;2023-04-24T11:16:33;10.83;;;5.90;;
10845;SDS011;5476;51.540;7.186;2023-04-24T11:19:17;11.17;;;6.17;;
10845;SDS011;5476;51.540;7.186;2023-04-24T11:21:47;10.60;;;5.97;;
10845;SDS011;5476;51.540;7.186;2023-04-24T11:24:30;15.93;;;5.73;;
10845;SDS011;5476;51.540;7.186;2023-04-24T11:27:01;9.23;;;5.57;;
10845;SDS011;5476;51.540;7.186;2023-04-24T11:29:44;12.23;;;4.77;;
10845;SDS011;5476;51.540;7.186;2023-04-24T11:32:17;11.83;;;5.50;;
10845;SDS011;5476;51.540;7.186;2023-04-24T11:34:50;13.57;;;6.40;;
10845;SDS011;5476;51.540;7.186;2023-04-24T11:37:22;11.73;;;5.60;;
10845;SDS011;5476;51.540;7.186;2023-04-24T11:39:55;15.20;;;6.00;;
10845;SDS011;5476;51.540;7.186;2023-04-24T11:42:23;14.47;;;6.20;;
10845;SDS011;5476;51.540;7.186;2023-04-24T11:44:53;15.60;;;6.40;;
10845;SDS011;5476;51.540;7.186;2023-04-24T11:47:27;11.97;;;5.90;;
10845;SDS011;5476;51.540;7.186;2023-04-24T11:49:56;11.90;;;6.50;;
10845;SDS011;5476;51.540;7.186;2023-04-24T11:52:25;11.57;;;6.37;;
10845;SDS011;5476;51.540;7.186;2023-04-24T11:54:52;11.13;;;6.17;;
10845;SDS011;5476;51.540;7.186;2023-04-24T11:57:20;12.63;;;6.13;;
10845;SDS011;5476;51.540;7.186;2023-04-24T11:59:49;9.17;;;5.10;;
10845;SDS011;5476;51.540;7.186;2023-04-24T12:02:22;9.27;;;4.70;;
10845;SDS011;5476;51.540;7.186;2023-04-24T12:04:50;8.50;;;3.60;;
10845;SDS011;5476;51.540;7.186;2023-04-24T12:07:23;6.07;;;3.90;;
10845;SDS011;5476;51.540;7.186;2023-04-24T12:09:54;10.43;;;4.73;;
10845;SDS011;5476;51.540;7.186;2023-04-24T12:12:25;6.97;;;3.70;;
10845;SDS011;5476;51.540;7.186;2023-04-24T12:14:53;9.03;;;3.73;;
10845;SDS011;5476;51.540;7.186;2023-04-24T12:17:26;8.00;;;3.70;;
10845;SDS011;5476;51.540;7.186;2023-04-24T12:20:00;8.60;;;3.63;;
10845;SDS011;5476;51.540;7.186;2023-04-24T12:22:42;9.30;;;4.07;;
10845;SDS011;5476;51.540;7.186;2023-04-24T12:25:14;5.97;;;3.70;;
10845;SDS011;5476;51.540;7.186;2023-04-24T12:27:43;8.37;;;3.60;;
10845;SDS011;5476;51.540;7.186;2023-04-24T12:30:12;8.70;;;3.60;;
10845;SDS011;5476;51.540;7.186;2023-04-24T12:32:42;6.63;;;3.23;;
10845;SDS011;5476;51.540;7.186;2023-04-24T12:35:10;8.30;;;3.67;;
10845;SDS011;5476;51.540;7.186;2023-04-24T12:37:37;7.27;;;3.10;;
10845;SDS011;5476;51.540;7.186;2023-04-24T12:40:07;8.90;;;4.20;;
10845;SDS011;5476;51.540;7.186;2023-04-24T12:42:41;5.77;;;3.47;;
10845;SDS011;5476;51.540;7.186;2023-04-24T12:45:09;6.50;;;3.07;;
10845;SDS011;5476;51.540;7.186;2023-04-24T12:47:38;9.93;;;3.60;;
10845;SDS011;5476;51.540;7.186;2023-04-24T12:50:10;7.23;;;3.43;;
10845;SDS011;5476;51.540;7.186;2023-04-24T12:52:38;5.30;;;3.30;;
10845;SDS011;5476;51.540;7.186;2023-04-24T12:55:07;7.30;;;3.57;;
10845;SDS011;5476;51.540;7.186;2023-04-24T12:57:36;5.80;;;2.73;;
10845;SDS011;5476;51.540;7.186;2023-04-24T13:00:06;5.47;;;2.70;;
10845;SDS011;5476;51.540;7.186;2023-04-24T13:02:34;4.50;;;2.70;;
10845;SDS011;5476;51.540;7.186;2023-04-24T13:05:02;5.70;;;2.80;;
10845;SDS011;5476;51.540;7.186;2023-04-24T13:07:31;5.07;;;2.60;;
10845;SDS011;5476;51.540;7.186;2023-04-24T13:09:59;8.80;;;3.10;;
10845;SDS011;5476;51.540;7.186;2023-04-24T13:12:27;3.60;;;2.57;;
10845;SDS011;5476;51.540;7.186;2023-04-24T13:14:54;3.63;;;2.13;;
10845;SDS011;5476;51.540;7.186;2023-04-24T13:17:24;9.20;;;2.60;;
10845;SDS011;5476;51.540;7.186;2023-04-24T13:19:53;3.40;;;2.20;;
10845;SDS011;5476;51.540;7.186;2023-04-24T13:22:21;3.10;;;2.30;;
10845;SDS011;5476;51.540;7.186;2023-04-24T13:24:50;2.20;;;1.60;;
10845;SDS011;5476;51.540;7.186;2023-04-24T13:27:18;3.53;;;2.00;;
10845;SDS011;5476;51.540;7.186;2023-04-24T13:29:45;4.40;;;2.40;;
10845;SDS011;5476;51.540;7.186;2023-04-24T13:32:13;4.20;;;2.40;;
10845;SDS011;5476;51.540;7.186;2023-04-24T13:34:41;3.73;;;2.70;;
10845;SDS011;5476;51.540;7.186;2023-04-24T13:37:08;5.67;;;3.10;;
10845;SDS011;5476;51.540;7.186;2023-04-24T13:39:36;5.50;;;2.40;;
10845;SDS011;5476;51.540;7.186;2023-04-24T13:42:05;4.63;;;2.37;;
10845;SDS011;5476;51.540;7.186;2023-04-24T13:44:32;3.30;;;2.30;;
10845;SDS011;5476;51.540;7.186;2023-04-24T13:47:01;5.30;;;2.13;;
10845;SDS011;5476;51.540;7.186;2023-04-24T13:49:28;2.70;;;2.03;;
10845;SDS011;5476;51.540;7.186;2023-04-24T13:51:56;3.47;;;2.23;;
10845;SDS011;5476;51.540;7.186;2023-04-24T13:54:24;3.70;;;2.20;;
10845;SDS011;5476;51.540;7.186;2023-04-24T13:56:52;2.47;;;2.27;;
10845;SDS011;5476;51.540;7.186;2023-04-24T13:59:21;5.07;;;2.57;;
10845;SDS011;5476;51.540;7.186;2023-04-24T14:01:48;5.40;;;2.60;;
10845;SDS011;5476;51.540;7.186;2023-04-24T14:04:15;4.07;;;2.37;;
10845;SDS011;5476;51.540;7.186;2023-04-24T14:06:43;4.77;;;2.50;;
10845;SDS011;5476;51.540;7.186;2023-04-24T14:09:10;6.17;;;2.50;;
10845;SDS011;5476;51.540;7.186;2023-04-24T14:11:39;5.70;;;2.87;;
10845;SDS011;5476;51.540;7.186;2023-04-24T14:14:07;6.33;;;2.77;;
10845;SDS011;5476;51.540;7.186;2023-04-24T14:16:36;4.10;;;2.80;;
10845;SDS011;5476;51.540;7.186;2023-04-24T14:19:03;4.87;;;3.00;;
10845;SDS011;5476;51.540;7.186;2023-04-24T14:21:31;3.30;;;2.70;;
10845;SDS011;5476;51.540;7.186;2023-04-24T14:23:58;3.83;;;2.63;;
10845;SDS011;5476;51.540;7.186;2023-04-24T14:26:26;7.93;;;3.27;;
10845;SDS011;5476;51.540;7.186;2023-04-24T14:28:53;3.67;;;2.57;;
10845;SDS011;5476;51.540;7.186;2023-04-24T14:31:22;4.00;;;2.13;;
10845;SDS011;5476;51.540;7.186;2023-04-24T14:33:50;4.03;;;1.90;;
10845;SDS011;5476;51.540;7.186;2023-04-24T14:36:20;6.10;;;2.20;;
10845;SDS011;5476;51.540;7.186;2023-04-24T14:38:47;3.50;;;2.03;;
10845;SDS011;5476;51.540;7.186;2023-04-24T14:41:18;2.30;;;1.93;;
10845;SDS011;5476;51.540;7.186;2023-04-24T14:43:46;4.07;;;2.30;;
10845;SDS011;5476;51.540;7.186;2023-04-24T14:46:13;4.43;;;2.70;;
10845;SDS011;5476;51.540;7.186;2023-04-24T14:48:40;4.33;;;2.90;;
10845;SDS011;5476;51.540;7.186;2023-04-24T14:51:09;5.40;;;3.20;;
10845;SDS011;5476;51.540;7.186;2023-04-24T14:53:37;3.57;;;2.90;;
10845;SDS011;5476;51.540;7.186;2023-04-24T14:56:23;3.80;;;3.17;;
10845;SDS011;5476;51.540;7.186;2023-04-24T14:59:03;6.30;;;3.70;;
10845;SDS011;5476;51.540;7.186;2023-04-24T15:01:37;4.37;;;3.97;;
10845;SDS011;5476;51.540;7.186;2023-04-24T15:04:04;5.03;;;3.33;;
10845;SDS011;5476;51.540;7.186;2023-04-24T15:06:32;4.53;;;3.83;;
10845;SDS011;5476;51.540;7.186;2023-04-24T15:08:59;7.73;;;3.77;;
10845;SDS011;5476;51.540;7.186;2023-04-24T15:11:27;5.73;;;3.63;;
10845;SDS011;5476;51.540;7.186;2023-04-24T15:13:55;5.93;;;3.20;;
10845;SDS011;5476;51.540;7.186;2023-04-24T15:16:25;4.70;;;3.10;;
10845;SDS011;5476;51.540;7.186;2023-04-24T15:18:52;4.67;;;2.93;;
10845;SDS011;5476;51.540;7.186;2023-04-24T15:21:23;4.47;;;2.20;;
10845;SDS011;5476;51.540;7.186;2023-04-24T15:23:52;7.13;;;2.73;;
10845;SDS011;5476;51.540;7.186;2023-04-24T15:26:20;3.43;;;2.70;;
10845;SDS011;5476;51.540;7.186;2023-04-24T15:31:35;2.67;;;1.73;;
10845;SDS011;5476;51.540;7.186;2023-04-24T15:34:07;5.23;;;2.27;;
10845;SDS011;5476;51.540;7.186;2023-04-24T15:36:35;3.43;;;2.10;;
10845;SDS011;5476;51.540;7.186;2023-04-24T15:39:06;3.17;;;2.00;;
10845;SDS011;5476;51.540;7.186;2023-04-24T15:41:38;2.93;;;2.23;;
10845;SDS011;5476;51.540;7.186;2023-04-24T15:44:05;3.73;;;2.00;;
10845;SDS011;5476;51.540;7.186;2023-04-24T15:46:37;2.23;;;1.80;;
10845;SDS011;5476;51.540;7.186;2023-04-24T15:49:05;3.90;;;1.83;;
10845;SDS011;5476;51.540;7.186;2023-04-24T15:51:34;3.00;;;1.90;;
10845;SDS011;5476;51.540;7.186;2023-04-24T15:54:09;3.07;;;2.20;;
10845;SDS011;5476;51.540;7.186;2023-04-24T15:56:56;4.17;;;2.23;;
10845;SDS011;5476;51.540;7.186;2023-04-24T15:59:26;3.60;;;1.90;;
10845;SDS011;5476;51.540;7.186;2023-04-24T16:01:54;3.10;;;1.60;;
10845;SDS011;5476;51.540;7.186;2023-04-24T16:04:22;2.60;;;1.53;;
10845;SDS011;5476;51.540;7.186;2023-04-24T16:06:49;2.40;;;1.37;;
10845;SDS011;5476;51.540;7.186;2023-04-24T16:09:20;2.07;;;1.53;;